Time;durP1;ratioP1;P1;durP2;ratioP2;P2;SDS_P1;SDS_P2;PMS_P1;PMS_P2;Temp;Humidity;BMP_temperature;BMP_pressure;BME280_temperature;BME280_humidity;BME280_pressure;Samples;Min_cycle;Max_cycle;Signal;HPM_P1;HPM_P2
2022/02/13 00:01:55;;;;;;;11.88;7.38;;;;;;;1.66;58.50;97251.59;5035048;28;20054;-78
2022/02/13 00:04:23;;;;;;;11.73;6.35;;;;;;;1.67;58.72;97244.72;5035582;28;20053;-80
2022/02/13 00:06:54;;;;;;;13.02;7.50;;;;;;;1.64;58.64;97246.59;5035419;28;20136;-80
2022/02/13 00:09:21;;;;;;;11.20;6.47;;;;;;;1.62;58.73;97252.78;5035525;28;20049;-77
2022/02/13 00:11:49;;;;;;;13.73;7.07;;;;;;;1.60;58.70;97250.31;5035924;28;20049;-79
2022/02/13 00:14:16;;;;;;;14.48;7.50;;;;;;;1.58;58.68;97252.16;5036152;28;20411;-78
2022/02/13 00:16:44;;;;;;;14.90;7.68;;;;;;;1.57;58.81;97240.22;5035366;28;20053;-80
2022/02/13 00:19:13;;;;;;;11.52;7.13;;;;;;;1.57;58.90;97239.41;5036184;28;20049;-76
2022/02/13 00:21:51;;;;;;;11.35;6.35;;;;;;;1.58;58.91;97239.31;5036066;28;20117;-79
2022/02/13 00:24:19;;;;;;;10.27;6.20;;;;;;;1.60;58.86;97237.44;5035975;28;20052;-77
2022/02/13 00:26:46;;;;;;;9.77;6.70;;;;;;;1.61;58.79;97236.50;5035494;28;20053;-78
2022/02/13 00:29:14;;;;;;;14.57;8.10;;;;;;;1.60;58.95;97232.31;5036156;28;20049;-77
2022/02/13 00:31:41;;;;;;;15.18;7.68;;;;;;;1.56;59.02;97236.00;5035739;28;20499;-80
2022/02/13 00:34:09;;;;;;;13.73;7.05;;;;;;;1.56;59.08;97237.78;5035818;28;20049;-81
2022/02/13 00:36:38;;;;;;;10.27;6.35;;;;;;;1.55;58.92;97228.41;5035289;28;20103;-79
2022/02/13 00:39:07;;;;;;;14.50;8.13;;;;;;;1.51;58.93;97230.41;5038295;28;20063;-80
2022/02/13 00:41:35;;;;;;;12.18;7.18;;;;;;;1.48;59.33;97225.44;5039910;28;20064;-80
2022/02/13 00:44:02;;;;;;;12.80;7.18;;;;;;;1.47;59.25;97223.81;5038044;28;20052;-80
2022/02/13 00:46:30;;;;;;;16.02;8.75;;;;;;;1.45;59.19;97220.53;5035168;28;20045;-80
2022/02/13 00:48:59;;;;;;;20.13;9.55;;;;;;;1.44;59.49;97224.03;5035426;28;20176;-82
2022/02/13 00:51:27;;;;;;;13.98;9.02;;;;;;;1.44;59.36;97224.88;5034779;28;20049;-79
2022/02/13 00:53:55;;;;;;;15.13;7.97;;;;;;;1.47;59.21;97218.69;5038479;28;20056;-81
2022/02/13 00:56:23;;;;;;;15.13;7.47;;;;;;;1.47;59.49;97225.59;5038698;28;20052;-82
2022/02/13 00:58:51;;;;;;;14.05;7.07;;;;;;;1.40;59.10;97217.47;5036572;28;20447;-82
2022/02/13 01:01:21;;;;;;;13.13;7.22;;;;;;;1.36;59.67;97221.19;5036328;28;20068;-79
2022/02/13 01:03:48;;;;;;;9.82;6.40;;;;;;;1.33;59.40;97224.78;5035726;28;20049;-80
2022/02/13 01:06:16;;;;;;;9.57;6.45;;;;;;;1.35;59.55;97224.69;5035244;28;20061;-82
2022/02/13 01:08:43;;;;;;;9.48;6.07;;;;;;;1.34;59.63;97221.31;5035662;28;20507;-80
2022/02/13 01:11:12;;;;;;;10.77;6.30;;;;;;;1.30;59.69;97216.50;5034639;28;20455;-83
2022/02/13 01:13:39;;;;;;;8.98;5.45;;;;;;;1.26;59.76;97218.44;5033774;28;20459;-82
2022/02/13 01:16:07;;;;;;;7.68;5.45;;;;;;;1.28;59.83;97213.22;5033340;28;20064;-80
2022/02/13 01:18:34;;;;;;;10.88;6.22;;;;;;;1.26;59.91;97222.78;5034384;28;20060;-83
2022/02/13 01:21:02;;;;;;;10.50;5.85;;;;;;;1.26;59.62;97217.63;5034154;28;20056;-77
2022/02/13 01:23:29;;;;;;;10.73;5.10;;;;;;;1.20;59.79;97217.16;5034167;28;20045;-77
2022/02/13 01:25:57;;;;;;;6.32;4.93;;;;;;;1.17;60.41;97219.91;5034039;28;20050;-81
2022/02/13 01:28:26;;;;;;;5.60;4.80;;;;;;;1.20;60.43;97217.16;5034414;28;20057;-80
2022/02/13 01:30:57;;;;;;;8.77;5.32;;;;;;;1.21;60.15;97216.22;5034773;28;20072;-79
2022/02/13 01:33:25;;;;;;;9.20;5.82;;;;;;;1.27;60.56;97221.84;5035001;28;20046;-78
2022/02/13 01:35:52;;;;;;;9.82;5.55;;;;;;;1.29;60.02;97209.69;5034169;28;20052;-81
2022/02/13 01:38:20;;;;;;;7.25;5.40;;;;;;;1.33;60.25;97205.97;5034650;28;20072;-80
2022/02/13 01:40:47;;;;;;;10.27;6.22;;;;;;;1.36;59.80;97203.22;5034191;28;20515;-78
2022/02/13 01:43:15;;;;;;;11.65;6.32;;;;;;;1.37;59.83;97209.97;5035006;28;20049;-82
2022/02/13 01:45:44;;;;;;;9.60;6.20;;;;;;;1.37;60.07;97202.28;5034733;28;20664;-79
2022/02/13 01:48:12;;;;;;;8.82;5.88;;;;;;;1.38;59.85;97203.94;5034506;28;20053;-80
2022/02/13 01:50:41;;;;;;;7.78;5.90;;;;;;;1.37;60.02;97197.13;5034305;28;20056;-79
2022/02/13 01:53:29;;;;;;;10.25;6.35;;;;;;;1.30;59.83;97201.88;5034056;28;20045;-78
2022/02/13 01:55:56;;;;;;;8.80;5.88;;;;;;;1.25;60.22;97193.69;5034151;28;20056;-79
2022/02/13 01:58:24;;;;;;;9.20;6.10;;;;;;;1.21;60.01;97193.06;5034275;28;20072;-78
2022/02/13 02:00:53;;;;;;;7.97;5.85;;;;;;;1.21;60.13;97198.22;5034899;28;20069;-83
2022/02/13 02:03:21;;;;;;;8.93;5.80;;;;;;;1.23;60.13;97186.09;5034214;28;20071;-80
2022/02/13 02:05:49;;;;;;;9.52;5.85;;;;;;;1.23;60.02;97187.84;5033957;28;20057;-79
2022/02/13 02:08:17;;;;;;;10.43;7.22;;;;;;;1.22;60.21;97187.03;5034790;28;20072;-80
2022/02/13 02:10:44;;;;;;;10.40;6.30;;;;;;;1.18;60.10;97177.03;5034594;28;20056;-81
2022/02/13 02:13:13;;;;;;;9.05;6.75;;;;;;;1.12;60.46;97180.88;5034261;28;20049;-80
2022/02/13 02:15:43;;;;;;;8.82;5.93;;;;;;;1.06;60.41;97168.47;5034197;28;20140;-82
2022/02/13 02:18:12;;;;;;;13.05;7.07;;;;;;;0.99;60.51;97174.97;5034445;28;20054;-80
2022/02/13 02:20:40;;;;;;;13.95;7.93;;;;;;;0.95;60.67;97178.69;5034585;28;20521;-78
2022/02/13 02:23:09;;;;;;;11.48;5.88;;;;;;;0.94;60.69;97169.31;5034591;28;20053;-81
2022/02/13 02:25:36;;;;;;;9.02;5.50;;;;;;;0.93;60.78;97172.84;5038573;28;20072;-78
2022/02/13 02:28:04;;;;;;;6.15;5.10;;;;;;;0.93;60.89;97167.69;5037702;28;20049;-80
2022/02/13 02:30:31;;;;;;;10.80;5.80;;;;;;;0.92;61.10;97171.19;5038261;28;20507;-78
2022/02/13 02:32:59;;;;;;;11.15;6.18;;;;;;;0.88;61.02;97160.31;5037951;28;20056;-80
2022/02/13 02:35:26;;;;;;;8.80;5.57;;;;;;;0.89;61.06;97156.00;5038271;28;20050;-80
2022/02/13 02:37:54;;;;;;;7.85;5.28;;;;;;;0.90;60.94;97158.47;5038313;28;20050;-79
2022/02/13 02:40:23;;;;;;;6.85;5.10;;;;;;;0.90;61.21;97155.88;5037977;28;20045;-79
2022/02/13 02:42:50;;;;;;;9.98;5.65;;;;;;;0.91;61.33;97154.94;5038021;28;20060;-78
2022/02/13 02:45:18;;;;;;;10.52;5.90;;;;;;;0.92;61.33;97156.59;5038361;28;20056;-77
2022/02/13 02:47:45;;;;;;;11.63;6.65;;;;;;;0.95;61.21;97145.28;5038618;28;20049;-80
2022/02/13 02:50:14;;;;;;;9.20;5.55;;;;;;;0.97;61.19;97146.00;5038502;28;20056;-80
2022/02/13 02:52:42;;;;;;;7.75;5.88;;;;;;;1.00;61.26;97148.34;5038257;28;20499;-79
2022/02/13 02:55:10;;;;;;;9.13;5.90;;;;;;;1.02;61.55;97146.50;5038322;28;20054;-78
2022/02/13 02:57:39;;;;;;;8.85;5.20;;;;;;;1.03;61.37;97138.69;5038063;28;20053;-81
2022/02/13 03:00:07;;;;;;;8.63;5.82;;;;;;;1.06;61.45;97135.06;5037984;28;20046;-79
2022/02/13 03:02:36;;;;;;;10.68;5.88;;;;;;;1.07;61.42;97135.88;5037899;28;20046;-81
2022/02/13 03:05:04;;;;;;;10.77;5.68;;;;;;;1.06;61.52;97131.69;5037872;28;20103;-78
2022/02/13 03:07:32;;;;;;;9.95;5.97;;;;;;;1.05;61.32;97130.88;5037208;28;20103;-79
2022/02/13 03:09:59;;;;;;;14.05;6.45;;;;;;;1.07;61.50;97123.84;5037972;28;20053;-78
2022/02/13 03:14:56;;;;;;;9.73;5.53;;;;;;;1.09;61.41;97122.00;5012429;28;20419;-81
2022/02/13 03:17:24;;;;;;;8.68;6.20;;;;;;;1.07;61.31;97128.97;5015052;28;20057;-82
2022/02/13 03:19:51;;;;;;;9.30;5.97;;;;;;;1.03;61.65;97125.03;5015476;28;20050;-80
2022/02/13 03:22:18;;;;;;;8.25;6.55;;;;;;;1.02;61.72;97124.19;5015401;28;20058;-79
2022/02/13 03:24:46;;;;;;;11.27;6.22;;;;;;;1.02;61.52;97121.59;5015262;28;20049;-81
2022/02/13 03:27:13;;;;;;;9.93;6.40;;;;;;;1.02;61.65;97131.06;5014898;28;20057;-81
2022/02/13 03:29:41;;;;;;;8.05;5.88;;;;;;;1.04;61.72;97124.06;5016039;28;20060;-82
2022/02/13 03:32:10;;;;;;;9.55;6.13;;;;;;;1.05;61.66;97128.31;5015426;28;20057;-79
2022/02/13 03:34:37;;;;;;;8.63;5.50;;;;;;;1.05;61.82;97120.59;5015005;28;20046;-80
2022/02/13 03:37:05;;;;;;;9.00;6.03;;;;;;;1.05;61.97;97114.63;5014132;28;20058;-81
2022/02/13 03:39:33;;;;;;;9.20;5.85;;;;;;;1.02;61.92;97119.03;5015185;28;20049;-81
2022/02/13 03:42:01;;;;;;;6.90;5.47;;;;;;;1.03;61.98;97119.88;5015058;28;20062;-81
2022/02/13 03:44:29;;;;;;;9.27;4.93;;;;;;;1.06;62.14;97121.41;5015187;28;20348;-81
2022/02/13 03:46:57;;;;;;;11.40;6.00;;;;;;;1.07;61.83;97118.72;5014588;28;20053;-81
2022/02/13 03:49:26;;;;;;;10.77;5.47;;;;;;;1.07;62.37;97128.97;5015208;28;20053;-80
2022/02/13 03:51:53;;;;;;;8.95;6.53;;;;;;;1.08;62.18;97122.94;5015167;28;20428;-83
2022/02/13 03:54:21;;;;;;;10.98;6.40;;;;;;;1.07;62.33;97121.28;5015404;28;20288;-80
2022/02/13 03:56:48;;;;;;;7.82;5.80;;;;;;;1.04;62.12;97113.81;5015085;28;20059;-81
2022/02/13 03:59:16;;;;;;;10.15;5.32;;;;;;;1.03;62.55;97123.28;5015022;28;20072;-80
2022/02/13 04:01:44;;;;;;;11.25;5.95;;;;;;;1.09;62.48;97123.75;5015289;28;20451;-81
2022/02/13 04:04:12;;;;;;;8.25;5.65;;;;;;;1.14;62.63;97131.97;5014904;28;20451;-81
2022/02/13 04:06:41;;;;;;;9.05;5.55;;;;;;;1.19;62.62;97128.13;5018739;28;20065;-81
2022/02/13 04:09:09;;;;;;;8.80;6.03;;;;;;;1.27;62.39;97129.31;5015002;28;20049;-81
2022/02/13 04:11:36;;;;;;;7.47;5.00;;;;;;;1.26;62.37;97136.22;5015218;28;20049;-81
2022/02/13 04:14:04;;;;;;;9.40;5.00;;;;;;;1.28;62.42;97125.81;5014793;28;20077;-81
2022/02/13 04:16:32;;;;;;;8.45;4.70;;;;;;;1.30;62.33;97124.78;5014523;28;20050;-79
2022/02/13 04:19:00;;;;;;;6.57;4.95;;;;;;;1.34;62.25;97125.38;5014437;28;20539;-80
2022/02/13 04:21:28;;;;;;;10.02;5.25;;;;;;;1.35;62.01;97120.13;5014218;28;20050;-80
2022/02/13 04:23:56;;;;;;;8.95;5.40;;;;;;;1.34;62.28;97125.38;5014542;28;20084;-80
2022/02/13 04:26:25;;;;;;;8.70;5.80;;;;;;;1.35;62.01;97124.44;5014067;28;20050;-80
2022/02/13 04:28:52;;;;;;;7.10;5.40;;;;;;;1.33;62.04;97123.72;5014417;28;20514;-81
2022/02/13 04:31:20;;;;;;;7.85;5.13;;;;;;;1.30;62.28;97123.97;5014166;28;20061;-80
2022/02/13 04:33:47;;;;;;;7.38;5.22;;;;;;;1.28;62.54;97120.69;5013974;28;20451;-80
2022/02/13 04:36:15;;;;;;;8.52;5.13;;;;;;;1.27;62.06;97130.16;5014091;28;20424;-81
2022/02/13 04:38:43;;;;;;;10.48;5.35;;;;;;;1.25;62.73;97126.88;5014627;28;20455;-81
2022/02/13 04:41:11;;;;;;;6.43;4.50;;;;;;;1.27;62.64;97117.31;5014344;28;20065;-80
2022/02/13 04:43:39;;;;;;;8.23;4.93;;;;;;;1.29;62.90;97117.16;5014319;28;20084;-80
2022/02/13 04:46:07;;;;;;;8.93;4.90;;;;;;;1.33;63.05;97118.59;5017464;28;20076;-81
2022/02/13 04:48:35;;;;;;;7.40;5.15;;;;;;;1.38;62.82;97116.53;5017377;28;20050;-79
2022/02/13 04:51:02;;;;;;;7.28;5.28;;;;;;;1.41;62.97;97111.16;5017586;28;20291;-81
2022/02/13 04:53:30;;;;;;;8.45;5.03;;;;;;;1.46;63.40;97119.34;5016525;28;20050;-80
2022/02/13 04:55:57;;;;;;;9.73;5.30;;;;;;;1.49;62.60;97108.00;5014300;28;20050;-80
2022/02/13 04:58:26;;;;;;;8.77;5.78;;;;;;;1.43;62.80;97099.00;5013961;28;20050;-81
2022/02/13 05:00:54;;;;;;;9.68;5.15;;;;;;;1.42;62.80;97105.06;5013657;28;20401;-79
2022/02/13 05:03:23;;;;;;;9.93;6.35;;;;;;;1.37;62.93;97094.31;5013764;28;20053;-81
2022/02/13 05:05:51;;;;;;;13.80;7.20;;;;;;;1.33;62.92;97098.84;5013845;28;20050;-80
2022/02/13 05:08:19;;;;;;;12.73;6.68;;;;;;;1.33;62.86;97092.88;5014162;28;20053;-80
2022/02/13 05:10:46;;;;;;;10.93;6.22;;;;;;;1.32;63.55;97094.66;5014642;28;20057;-80
2022/02/13 05:13:15;;;;;;;11.63;6.15;;;;;;;1.35;63.10;97091.03;5013822;28;20054;-81
2022/02/13 05:15:44;;;;;;;12.63;6.18;;;;;;;1.37;63.34;97089.97;5012882;28;20053;-79
2022/02/13 05:18:11;;;;;;;11.05;5.75;;;;;;;1.36;62.99;97092.69;5013226;28;20061;-81
2022/02/13 05:20:39;;;;;;;13.52;6.05;;;;;;;1.31;63.12;97081.91;5013255;28;20068;-82
2022/02/13 05:23:06;;;;;;;11.40;5.68;;;;;;;1.29;63.45;97079.47;5013261;28;20061;-81
2022/02/13 05:25:35;;;;;;;9.35;6.22;;;;;;;1.30;63.45;97082.84;5013024;28;20077;-79
2022/02/13 05:28:03;;;;;;;8.60;5.13;;;;;;;1.32;63.41;97076.66;5013267;28;20060;-80
2022/02/13 05:30:31;;;;;;;8.02;5.20;;;;;;;1.36;63.56;97082.41;5013642;28;20046;-79
2022/02/13 05:33:00;;;;;;;6.03;4.75;;;;;;;1.38;63.51;97080.53;5013527;28;20393;-81
2022/02/13 05:35:28;;;;;;;5.85;4.75;;;;;;;1.40;63.16;97074.34;5013208;28;20404;-80
2022/02/13 05:37:55;;;;;;;10.52;6.03;;;;;;;1.44;63.56;97075.75;5013338;28;20050;-80
2022/02/13 05:40:23;;;;;;;11.20;6.13;;;;;;;1.51;63.41;97083.00;5012928;28;20080;-80
2022/02/13 05:42:50;;;;;;;8.05;5.97;;;;;;;1.56;63.57;97083.50;5012888;28;20056;-80
2022/02/13 05:45:18;;;;;;;9.05;5.15;;;;;;;1.54;63.27;97075.88;5013070;28;20061;-80
2022/02/13 05:47:46;;;;;;;7.03;5.20;;;;;;;1.54;63.39;97068.19;5012811;28;20053;-80
2022/02/13 05:50:15;;;;;;;8.95;5.57;;;;;;;1.54;63.24;97075.88;5012871;28;20056;-80
2022/02/13 05:52:44;;;;;;;7.38;4.65;;;;;;;1.58;63.17;97073.91;5013008;28;20158;-80
2022/02/13 05:55:11;;;;;;;8.90;5.60;;;;;;;1.56;62.96;97086.88;5012973;28;20519;-81
2022/02/13 05:57:42;;;;;;;8.57;5.68;;;;;;;1.52;63.18;97077.75;5012921;28;20496;-81
2022/02/13 06:00:12;;;;;;;8.15;5.65;;;;;;;1.49;63.02;97080.56;5012738;28;20056;-82
2022/02/13 06:02:40;;;;;;;7.82;5.07;;;;;;;1.46;63.27;97085.91;5012917;28;20058;-79
2022/02/13 06:05:09;;;;;;;8.02;5.10;;;;;;;1.42;63.11;97077.63;5013004;28;20060;-79
2022/02/13 06:07:39;;;;;;;7.18;5.38;;;;;;;1.41;63.46;97080.31;5012562;28;20046;-79
2022/02/13 06:10:08;;;;;;;7.70;4.72;;;;;;;1.39;63.60;97082.16;5012823;28;20058;-79
2022/02/13 06:12:35;;;;;;;7.10;4.90;;;;;;;1.37;63.37;97073.75;5012527;28;20054;-79
2022/02/13 06:15:04;;;;;;;8.85;4.93;;;;;;;1.32;63.63;97080.97;5012850;28;20053;-80
2022/02/13 06:17:32;;;;;;;27.02;14.38;;;;;;;1.29;63.81;97076.88;5012392;28;20053;-80
2022/02/13 06:19:59;;;;;;;21.25;11.23;;;;;;;1.30;63.72;97077.69;5012553;28;20057;-81
2022/02/13 06:22:29;;;;;;;13.73;7.18;;;;;;;1.30;63.69;97075.13;5012514;28;20080;-80
2022/02/13 06:24:58;;;;;;;8.73;5.60;;;;;;;1.27;63.98;97078.75;5012834;28;20057;-82
2022/02/13 06:27:26;;;;;;;8.20;5.10;;;;;;;1.22;63.80;97079.09;5012100;28;20046;-81
2022/02/13 06:29:54;;;;;;;7.95;4.93;;;;;;;1.19;64.14;97075.91;5012389;28;20056;-79
2022/02/13 06:32:22;;;;;;;9.82;5.32;;;;;;;1.14;63.79;97073.69;5012525;28;20078;-79
2022/02/13 06:34:49;;;;;;;8.60;5.38;;;;;;;1.10;63.82;97074.84;5012509;28;20503;-79
2022/02/13 06:37:16;;;;;;;7.93;5.70;;;;;;;1.06;63.93;97070.84;5012418;28;20046;-79
2022/02/13 06:39:44;;;;;;;7.28;5.22;;;;;;;1.01;64.20;97076.31;5013005;28;20050;-81
2022/02/13 06:42:13;;;;;;;8.30;5.38;;;;;;;0.97;64.21;97076.66;5012604;28;20054;-80
2022/02/13 06:44:40;;;;;;;9.70;5.30;;;;;;;0.89;63.99;97081.50;5014926;28;20046;-80
2022/02/13 06:47:08;;;;;;;8.93;5.95;;;;;;;0.80;64.04;97065.00;5014168;28;20064;-81
2022/02/13 06:49:35;;;;;;;10.52;5.88;;;;;;;0.73;64.29;97069.75;5013455;28;20068;-80
2022/02/13 06:52:03;;;;;;;8.07;5.63;;;;;;;0.67;64.73;97062.47;5012710;28;20050;-81
2022/02/13 06:54:31;;;;;;;7.55;5.50;;;;;;;0.63;64.72;97071.31;5013325;28;20507;-80
2022/02/13 06:56:58;;;;;;;9.43;5.55;;;;;;;0.62;64.69;97072.28;5012715;28;20053;-79
2022/02/13 06:59:27;;;;;;;9.18;5.60;;;;;;;0.59;64.94;97067.34;5012642;28;20451;-80
2022/02/13 07:01:55;;;;;;;8.63;5.65;;;;;;;0.55;64.56;97073.63;5012461;28;20052;-79
2022/02/13 07:04:22;;;;;;;9.00;6.00;;;;;;;0.51;64.85;97075.59;5013266;28;20053;-79
2022/02/13 07:06:50;;;;;;;9.02;5.90;;;;;;;0.46;64.63;97077.66;5012911;28;20424;-80
2022/02/13 07:09:17;;;;;;;11.52;6.40;;;;;;;0.44;65.02;97073.53;5014522;28;20058;-82
2022/02/13 07:11:45;;;;;;;7.70;5.65;;;;;;;0.47;65.14;97073.34;5017823;28;20065;-86
2022/02/13 07:14:14;;;;;;;7.30;5.50;;;;;;;0.48;64.96;97068.13;5018888;28;20077;-83
2022/02/13 07:16:43;;;;;;;8.40;5.68;;;;;;;0.54;65.16;97070.22;5018657;28;20049;-81
2022/02/13 07:19:11;;;;;;;8.85;5.82;;;;;;;0.61;64.91;97075.75;5018003;28;20534;-82
2022/02/13 07:21:39;;;;;;;8.25;5.82;;;;;;;0.69;64.86;97073.47;5017934;28;20064;-84
2022/02/13 07:24:07;;;;;;;9.45;5.30;;;;;;;0.79;64.51;97074.47;5020748;28;20060;-85
2022/02/13 07:26:35;;;;;;;8.63;5.63;;;;;;;0.91;64.47;97077.09;5021059;28;20048;-81
2022/02/13 07:29:03;;;;;;;9.35;6.63;;;;;;;1.07;64.12;97071.66;5020272;28;20057;-81
2022/02/13 07:31:33;;;;;;;10.00;5.85;;;;;;;1.21;63.90;97064.59;5022999;28;20527;-83
2022/02/13 07:34:02;;;;;;;9.38;5.30;;;;;;;1.36;63.32;97066.97;5020692;28;20397;-81
2022/02/13 07:36:30;;;;;;;12.27;6.47;;;;;;;1.39;63.12;97064.97;5024716;28;20049;-80
2022/02/13 07:38:58;;;;;;;7.38;5.55;;;;;;;1.43;63.11;97061.25;5016065;28;20053;-81
2022/02/13 07:41:26;;;;;;;10.60;6.40;;;;;;;1.45;63.10;97048.31;5015324;28;20124;-78
2022/02/13 07:43:55;;;;;;;7.82;6.20;;;;;;;1.47;63.01;97049.00;5015591;28;20492;-84
2022/02/13 07:46:23;;;;;;;8.43;5.00;;;;;;;1.47;63.12;97049.00;5016028;28;20164;-79
2022/02/13 07:48:51;;;;;;;9.93;5.78;;;;;;;1.48;63.18;97045.50;5015977;28;20053;-78
2022/02/13 07:51:20;;;;;;;10.77;7.00;;;;;;;1.50;63.00;97045.38;5015481;28;20496;-77
2022/02/13 07:53:47;;;;;;;10.00;6.90;;;;;;;1.56;63.04;97043.16;5008937;28;20050;-79
2022/02/13 07:56:15;;;;;;;10.52;5.95;;;;;;;1.62;62.92;97044.47;5014116;28;20046;-77
2022/02/13 07:58:43;;;;;;;10.82;5.57;;;;;;;1.67;63.04;97039.81;5014767;28;20420;-77
2022/02/13 08:01:10;;;;;;;9.10;5.97;;;;;;;1.77;62.54;97050.19;5014638;28;20056;-76
2022/02/13 08:03:38;;;;;;;10.50;5.97;;;;;;;1.87;62.72;97043.44;5014722;28;20447;-76
2022/02/13 08:06:06;;;;;;;13.15;6.40;;;;;;;1.98;62.35;97040.84;5015547;28;20060;-77
2022/02/13 08:08:36;;;;;;;8.27;5.47;;;;;;;2.08;62.03;97037.56;5016010;28;20053;-81
2022/02/13 08:11:04;;;;;;;8.48;5.65;;;;;;;2.16;61.80;97037.81;5015423;28;20133;-76
2022/02/13 08:13:32;;;;;;;9.02;5.18;;;;;;;2.24;61.84;97044.00;5014749;28;20061;-76
2022/02/13 08:16:00;;;;;;;7.22;5.65;;;;;;;2.37;61.32;97041.28;5014278;28;20052;-76
2022/02/13 08:18:28;;;;;;;7.13;5.45;;;;;;;2.50;61.13;97038.59;5014279;28;20252;-76
2022/02/13 08:20:55;;;;;;;9.05;5.45;;;;;;;2.65;61.11;97034.00;5014417;28;20061;-76
2022/02/13 08:23:23;;;;;;;8.70;5.50;;;;;;;2.78;60.42;97037.22;5014075;28;20050;-77
2022/02/13 08:25:53;;;;;;;8.77;5.45;;;;;;;2.93;60.33;97034.34;5013868;28;20045;-77
2022/02/13 08:28:20;;;;;;;6.85;5.72;;;;;;;3.10;60.28;97033.81;5014199;28;20049;-77
2022/02/13 08:30:48;;;;;;;10.20;4.90;;;;;;;3.30;59.89;97030.44;5014459;28;20049;-76
2022/02/13 08:33:16;;;;;;;9.18;5.32;;;;;;;3.54;59.56;97028.53;5014002;28;20069;-77
2022/02/13 08:35:43;;;;;;;7.50;5.55;;;;;;;3.74;58.96;97030.28;5014185;28;20076;-77
2022/02/13 08:38:11;;;;;;;9.30;5.93;;;;;;;3.92;58.53;97033.06;5017861;28;20058;-77
2022/02/13 08:40:40;;;;;;;7.70;5.57;;;;;;;4.12;57.64;97026.22;5016061;28;20045;-77
2022/02/13 08:43:09;;;;;;;7.85;5.45;;;;;;;4.33;57.51;97026.16;5014643;28;20049;-76
2022/02/13 08:45:38;;;;;;;9.52;6.05;;;;;;;4.52;57.22;97026.19;5014037;28;20050;-76
2022/02/13 08:48:06;;;;;;;8.85;4.93;;;;;;;4.78;56.61;97030.84;5013396;28;20057;-76
2022/02/13 08:50:34;;;;;;;7.47;5.32;;;;;;;5.05;56.10;97025.03;5013351;28;20053;-77
2022/02/13 08:53:01;;;;;;;8.40;5.28;;;;;;;5.27;55.55;97026.50;5013653;28;20053;-77
2022/02/13 08:55:29;;;;;;;6.50;5.15;;;;;;;5.49;55.51;97014.22;5013407;28;20056;-76
2022/02/13 08:57:57;;;;;;;10.73;5.43;;;;;;;5.73;55.13;97019.72;5013309;28;20045;-76
2022/02/13 09:00:26;;;;;;;7.88;5.47;;;;;;;5.97;53.96;97018.47;5013701;28;20052;-76
2022/02/13 09:02:54;;;;;;;7.35;5.53;;;;;;;6.16;53.97;97013.16;5013545;28;20516;-77
2022/02/13 09:05:21;;;;;;;8.73;5.50;;;;;;;6.39;53.71;97010.22;5013847;28;20049;-76
2022/02/13 09:07:49;;;;;;;8.82;5.93;;;;;;;6.59;52.61;97008.31;5013162;28;20419;-76
2022/02/13 09:10:18;;;;;;;10.85;5.15;;;;;;;6.73;52.30;97009.56;5013235;28;20049;-77
2022/02/13 09:12:46;;;;;;;8.52;5.32;;;;;;;6.87;52.18;97006.47;5013326;28;20080;-77
2022/02/13 09:15:14;;;;;;;8.98;5.72;;;;;;;7.03;51.74;97010.19;5013531;28;20060;-76
2022/02/13 09:17:43;;;;;;;8.85;5.57;;;;;;;7.11;51.07;97008.47;5013360;28;20121;-76
2022/02/13 09:20:12;;;;;;;7.03;5.97;;;;;;;7.22;51.50;97000.44;5013789;28;20046;-77
2022/02/13 09:22:40;;;;;;;9.13;5.35;;;;;;;7.32;51.06;97010.72;5013621;28;20054;-78
2022/02/13 09:25:08;;;;;;;10.50;5.80;;;;;;;7.35;50.95;97002.66;5013565;28;20050;-78
2022/02/13 09:27:35;;;;;;;7.53;5.43;;;;;;;7.26;50.45;97000.97;5013402;28;20056;-78
2022/02/13 09:30:03;;;;;;;7.90;5.55;;;;;;;7.15;50.89;96993.41;5013559;28;20488;-77
2022/02/13 09:32:31;;;;;;;6.78;5.47;;;;;;;7.14;50.72;96996.97;5013122;28;20056;-76
2022/02/13 09:35:00;;;;;;;8.07;6.03;;;;;;;7.15;50.74;96988.22;5012511;28;20479;-77
2022/02/13 09:37:28;;;;;;;12.93;5.13;;;;;;;7.26;50.95;96977.63;5012905;28;20061;-77
2022/02/13 09:39:55;;;;;;;7.20;5.35;;;;;;;7.46;50.97;96980.00;5012886;28;20054;-77
2022/02/13 09:42:23;;;;;;;6.35;5.47;;;;;;;7.72;50.47;96978.22;5013122;28;20065;-77
2022/02/13 09:44:50;;;;;;;8.25;5.43;;;;;;;7.96;49.84;96977.53;5012790;28;20061;-77
2022/02/13 09:47:20;;;;;;;8.60;6.15;;;;;;;8.17;49.85;96969.31;5012650;28;20092;-77
2022/02/13 09:49:48;;;;;;;11.32;6.72;;;;;;;8.42;49.13;96972.03;5012918;28;20823;-77
2022/02/13 09:52:16;;;;;;;10.70;7.05;;;;;;;8.67;48.47;96962.47;5013159;28;20050;-77
2022/02/13 09:54:44;;;;;;;12.38;7.28;;;;;;;8.89;49.07;96968.03;5013125;28;20054;-78
2022/02/13 10:00:01;;;;;;;8.80;6.18;;;;;;;9.48;47.22;96958.22;4976400;28;20057;-77
2022/02/13 10:02:37;;;;;;;7.75;5.95;;;;;;;9.68;46.31;96956.84;5009195;28;20530;-76
2022/02/13 10:05:07;;;;;;;8.10;5.60;;;;;;;9.92;46.48;96954.34;5012664;28;20455;-76
2022/02/13 10:07:37;;;;;;;9.73;5.68;;;;;;;10.16;45.51;96951.63;5012633;28;20061;-76
2022/02/13 10:10:08;;;;;;;8.18;6.10;;;;;;;10.38;45.76;96954.50;5012901;28;20061;-77
2022/02/13 10:12:40;;;;;;;8.07;5.70;;;;;;;10.68;44.99;96951.03;5012663;28;20057;-76
2022/02/13 10:15:29;;;;;;;7.78;5.47;;;;;;;11.02;44.03;96956.81;5035226;22;20534;-75
2022/02/13 10:18:03;;;;;;;7.75;5.45;;;;;;;11.31;43.07;96953.50;5012254;28;20046;-80
2022/02/13 10:20:33;;;;;;;8.65;5.60;;;;;;;11.49;42.89;96947.94;5012966;28;20046;-77
2022/02/13 10:23:09;;;;;;;7.22;5.38;;;;;;;11.62;42.18;96936.88;5013092;28;20050;-77
2022/02/13 10:25:38;;;;;;;7.38;4.50;;;;;;;11.79;43.14;96935.69;5013030;28;20050;-76
2022/02/13 10:28:12;;;;;;;9.70;5.68;;;;;;;12.07;42.12;96935.06;5013886;28;20049;-77
2022/02/13 10:30:42;;;;;;;9.20;5.70;;;;;;;12.34;41.77;96937.00;5014301;28;20060;-78
2022/02/13 10:33:17;;;;;;;7.05;5.55;;;;;;;12.65;41.41;96938.53;5015308;28;20053;-75
2022/02/13 10:36:03;;;;;;;6.82;5.25;;;;;;;12.93;41.17;96940.41;4996585;28;20069;-74
2022/02/13 10:38:33;;;;;;;9.35;5.50;;;;;;;13.15;41.61;96925.47;4997148;28;20057;-77
2022/02/13 10:41:12;;;;;;;6.63;5.18;;;;;;;13.38;39.66;96918.22;4997039;28;20054;-78
2022/02/13 10:43:57;;;;;;;6.55;5.68;;;;;;;13.41;39.58;96906.53;4997517;28;20061;-79
2022/02/13 10:46:29;;;;;;;8.23;5.57;;;;;;;13.44;39.58;96895.66;5000971;28;20054;-76
2022/02/13 10:48:59;;;;;;;9.50;5.65;;;;;;;13.63;39.33;96898.59;5000890;28;20050;-77
2022/02/13 10:51:29;;;;;;;9.68;6.15;;;;;;;13.77;39.38;96892.41;5000216;28;20046;-77
2022/02/13 10:53:58;;;;;;;7.20;5.10;;;;;;;14.00;39.73;96885.06;4999315;28;20058;-78
2022/02/13 10:56:26;;;;;;;7.30;5.30;;;;;;;14.24;39.23;96876.88;4999846;28;20050;-74
2022/02/13 10:58:56;;;;;;;7.20;4.82;;;;;;;14.45;39.08;96870.63;4999496;28;20046;-76
2022/02/13 11:01:25;;;;;;;7.43;5.05;;;;;;;14.72;38.53;96871.53;4999801;28;20059;-78
2022/02/13 11:03:57;;;;;;;7.68;5.10;;;;;;;15.00;37.50;96869.50;4999353;28;20500;-76
2022/02/13 11:06:28;;;;;;;7.28;5.55;;;;;;;15.23;38.19;96866.44;4999053;28;20047;-77
2022/02/13 11:09:01;;;;;;;8.47;4.33;;;;;;;15.48;36.79;96859.72;4999899;28;20046;-76
2022/02/13 11:11:43;;;;;;;6.65;4.88;;;;;;;15.78;36.21;96865.31;4999366;28;20287;-77
2022/02/13 11:14:24;;;;;;;6.25;4.53;;;;;;;16.16;35.79;96864.53;5012937;28;20038;-77
2022/02/13 11:16:53;;;;;;;6.50;5.22;;;;;;;16.60;34.53;96862.88;5018585;28;20053;-77
2022/02/13 11:19:22;;;;;;;6.93;5.28;;;;;;;17.07;34.78;96852.81;5020096;28;20068;-78
2022/02/13 11:21:49;;;;;;;6.10;4.30;;;;;;;17.69;33.27;96845.69;5019909;28;20236;-78
2022/02/13 11:24:26;;;;;;;7.25;4.35;;;;;;;18.43;32.18;96845.59;5019425;28;20054;-77
2022/02/13 11:26:58;;;;;;;5.82;4.13;;;;;;;19.18;31.27;96835.47;5020399;28;20061;-80
2022/02/13 11:29:51;;;;;;;6.03;4.50;;;;;;;19.90;29.47;96837.81;5020160;28;20045;-76
2022/02/13 11:32:35;;;;;;;6.22;4.30;;;;;;;20.55;27.80;96828.63;5019288;28;20053;-77
2022/02/13 11:35:05;;;;;;;7.68;4.57;;;;;;;21.01;28.44;96828.56;4999437;28;20054;-78
2022/02/13 11:37:44;;;;;;;6.55;4.43;;;;;;;21.53;27.19;96815.00;4999053;28;20058;-75
2022/02/13 11:40:49;;;;;;;5.38;4.10;;;;;;;21.98;26.33;96805.97;4996900;28;20129;-76
2022/02/13 11:43:16;;;;;;;5.53;4.45;;;;;;;22.55;25.40;96797.50;4996438;28;20050;-76
2022/02/13 11:45:46;;;;;;;6.93;4.70;;;;;;;22.73;24.78;96803.50;4995932;28;20073;-77
2022/02/13 11:48:39;;;;;;;5.05;4.53;;;;;;;22.68;25.58;96790.97;4996754;28;20058;-77
2022/02/13 11:51:09;;;;;;;5.57;4.90;;;;;;;23.01;24.85;96776.59;4996028;28;20138;-77
2022/02/13 11:53:39;;;;;;;5.35;4.43;;;;;;;23.30;24.40;96778.88;4996351;28;20050;-75